Time;durP1;ratioP1;P1;durP2;ratioP2;P2;SDS_P1;SDS_P2;PMS_P1;PMS_P2;Temp;Humidity;BMP_temperature;BMP_pressure;BME280_temperature;BME280_humidity;BME280_pressure;Samples;Min_cycle;Max_cycle;Signal;HPM_P1;HPM_P2
2022/01/24 00:02:23;;;;;;;6.32;3.30;;;20.20;55.00;;;;;;5013990;28;20090;-61
2022/01/24 00:04:49;;;;;;;6.03;3.30;;;20.20;55.00;;;;;;5014378;28;20049;-61
2022/01/24 00:07:19;;;;;;;6.45;3.38;;;20.20;55.00;;;;;;5013180;28;20057;-61
2022/01/24 00:09:44;;;;;;;6.90;3.65;;;20.20;54.90;;;;;;5013799;28;20060;-61
2022/01/24 00:17:41;;;;;;;6.15;3.30;;;20.10;54.90;;;;;;4980483;28;20049;-62
2022/01/24 00:28:20;;;;;;;6.40;3.53;;;20.10;54.90;;;;;;5012755;28;20049;-61
2022/01/24 00:30:46;;;;;;;5.85;3.60;;;20.10;54.90;;;;;;5013868;28;20045;-61
2022/01/24 00:33:12;;;;;;;6.28;3.72;;;20.10;54.80;;;;;;5013287;28;20050;-61
2022/01/24 00:35:38;;;;;;;7.03;3.70;;;20.00;54.80;;;;;;4995440;28;20089;-61
2022/01/24 00:38:03;;;;;;;5.72;3.50;;;20.00;54.80;;;;;;5013513;28;20137;-61
2022/01/24 00:40:33;;;;;;;5.88;3.53;;;20.00;54.80;;;;;;5013473;28;20042;-61
2022/01/24 00:42:59;;;;;;;6.68;3.75;;;20.00;54.70;;;;;;5012788;28;20049;-61
2022/01/24 00:48:09;;;;;;;5.75;3.70;;;20.00;54.70;;;;;;5013659;28;20076;-61
2022/01/24 00:53:49;;;;;;;6.38;3.67;;;20.00;54.70;;;;;;5012878;28;20058;-61
2022/01/24 00:56:15;;;;;;;5.85;3.42;;;20.00;54.70;;;;;;5011992;28;20425;-61
2022/01/24 00:58:40;;;;;;;6.82;3.63;;;19.90;54.60;;;;;;5013310;28;20041;-61
2022/01/24 01:01:06;;;;;;;6.15;4.03;;;20.00;54.70;;;;;;5012800;28;20054;-61
2022/01/24 01:03:31;;;;;;;7.30;4.30;;;19.90;54.60;;;;;;5011519;28;20064;-61
2022/01/24 01:06:04;;;;;;;6.40;4.10;;;20.00;54.60;;;;;;4995518;28;20061;-61
2022/01/24 01:19:27;;;;;;;6.53;3.80;;;19.90;54.50;;;;;;5012983;28;20077;-61
2022/01/24 01:21:53;;;;;;;7.40;4.10;;;19.90;54.40;;;;;;5013039;28;20069;-61
2022/01/24 01:24:19;;;;;;;8.38;4.40;;;19.90;54.40;;;;;;5012090;28;20053;-61
2022/01/24 01:26:53;;;;;;;6.28;3.60;;;19.90;54.40;;;;;;5012644;28;20367;-61
2022/01/24 01:29:27;;;;;;;5.95;3.67;;;19.80;54.30;;;;;;5012491;28;20064;-61
2022/01/24 01:32:08;;;;;;;6.40;3.80;;;19.80;54.30;;;;;;5011188;28;20405;-61
2022/01/24 01:55:48;;;;;;;5.68;2.92;;;19.70;54.10;;;;;;5012338;28;20054;-61
2022/01/24 01:58:18;;;;;;;5.30;3.00;;;19.80;54.10;;;;;;5012329;28;20052;-61
2022/01/24 02:00:54;;;;;;;5.47;3.28;;;19.80;54.00;;;;;;5011548;28;20093;-61
2022/01/24 02:03:21;;;;;;;6.05;3.60;;;19.70;54.10;;;;;;5012178;28;20561;-61
2022/01/24 02:05:46;;;;;;;5.22;3.20;;;19.70;54.10;;;;;;5012317;28;20100;-61
2022/01/24 02:08:12;;;;;;;6.53;3.47;;;19.70;54.00;;;;;;5011453;28;20075;-61
2022/01/24 02:10:40;;;;;;;5.72;3.30;;;19.70;54.00;;;;;;5012154;28;20092;-61
2022/01/24 02:13:05;;;;;;;5.20;3.13;;;19.70;54.00;;;;;;5012331;28;20520;-61
2022/01/24 02:15:51;;;;;;;5.03;3.50;;;19.70;54.10;;;;;;5016111;28;20073;-61
2022/01/24 02:21:26;;;;;;;5.07;2.63;;;19.70;54.20;;;;;;5015057;28;20479;-61
2022/01/24 02:23:52;;;;;;;4.85;2.85;;;19.70;54.20;;;;;;5016374;28;20046;-61
2022/01/24 02:26:20;;;;;;;6.25;3.65;;;19.60;54.20;;;;;;5015604;28;20038;-61
2022/01/24 02:28:55;;;;;;;;;;;19.60;54.10;;;;;;5015642;28;20048;-61
2022/01/24 02:34:03;;;;;;;4.47;2.50;;;19.60;54.20;;;;;;5015307;28;20046;-61
2022/01/24 02:36:28;;;;;;;4.55;3.08;;;19.60;54.20;;;;;;5015373;28;20046;-61
2022/01/24 02:39:35;;;;;;;5.53;2.97;;;19.60;54.20;;;;;;5015998;28;20046;-61
2022/01/24 02:50:26;;;;;;;4.65;2.65;;;19.70;54.20;;;;;;5014425;28;20466;-61
2022/01/24 02:52:52;;;;;;;3.55;2.45;;;19.60;54.10;;;;;;5015401;28;20478;-61
2022/01/24 02:55:18;;;;;;;4.05;2.40;;;19.70;54.20;;;;;;4997053;28;20131;-61
2022/01/24 02:57:43;;;;;;;4.93;2.75;;;19.70;54.20;;;;;;4998064;28;20092;-61
2022/01/24 03:00:10;;;;;;;4.15;2.50;;;19.70;54.20;;;;;;5014437;28;20119;-61
2022/01/24 03:02:36;;;;;;;5.40;2.85;;;19.70;54.20;;;;;;4993368;28;20402;-60
2022/01/24 03:05:01;;;;;;;5.72;2.88;;;19.70;54.10;;;;;;4995544;28;20042;-61
2022/01/24 03:07:27;;;;;;;4.72;2.72;;;19.70;54.20;;;;;;4995189;28;20053;-61
2022/01/24 03:09:55;;;;;;;3.90;2.35;;;19.70;54.10;;;;;;4995007;28;20074;-61
2022/01/24 03:12:41;;;;;;;3.85;2.20;;;19.80;54.20;;;;;;4995238;28;20050;-61
2022/01/24 03:15:07;;;;;;;4.43;2.22;;;19.80;54.20;;;;;;4995692;28;20038;-61
2022/01/24 03:17:33;;;;;;;4.05;2.20;;;19.80;54.10;;;;;;4994528;28;20184;-61
2022/01/24 03:19:58;;;;;;;4.63;2.65;;;19.80;54.10;;;;;;4995107;28;20129;-61
2022/01/24 03:22:24;;;;;;;4.85;2.63;;;19.80;54.10;;;;;;4994892;28;20096;-61
2022/01/24 03:24:49;;;;;;;4.07;2.63;;;19.80;54.00;;;;;;4993713;28;20061;-61
2022/01/24 03:27:15;;;;;;;4.07;2.30;;;19.80;54.00;;;;;;4995133;28;20048;-61
2022/01/24 03:29:41;;;;;;;3.97;2.30;;;19.80;54.00;;;;;;4995412;28;20128;-61
2022/01/24 03:32:07;;;;;;;3.65;2.00;;;19.90;54.10;;;;;;4994752;28;20109;-61
2022/01/24 03:34:32;;;;;;;4.30;2.22;;;19.90;54.10;;;;;;4994787;28;20053;-61
2022/01/24 03:36:58;;;;;;;3.78;2.00;;;19.90;54.10;;;;;;4995197;28;20039;-61
2022/01/24 03:39:23;;;;;;;3.22;1.88;;;19.90;54.00;;;;;;4994158;28;20046;-60
2022/01/24 03:41:49;;;;;;;3.65;2.13;;;19.90;54.00;;;;;;4994927;28;20073;-60
2022/01/24 03:44:17;;;;;;;4.47;2.13;;;19.90;53.90;;;;;;4994574;28;20101;-61
2022/01/24 03:49:45;;;;;;;3.40;2.08;;;19.90;54.00;;;;;;4994742;28;20081;-60
2022/01/24 03:52:05;;;;;;;3.08;2.10;;;19.90;54.00;;;;;;4993722;28;20112;-61
2022/01/24 03:54:31;;;;;;;4.22;2.05;;;19.90;53.90;;;;;;4994216;28;20262;-61
2022/01/24 03:56:56;;;;;;;3.88;2.25;;;19.90;53.90;;;;;;4994486;28;20054;-61
2022/01/24 03:59:22;;;;;;;3.33;1.98;;;19.90;53.90;;;;;;4993473;28;20081;-60
2022/01/24 04:01:47;;;;;;;3.80;2.05;;;19.90;53.80;;;;;;4994499;28;20050;-61
2022/01/24 04:04:13;;;;;;;3.75;2.25;;;19.90;53.80;;;;;;4994484;28;20050;-61
2022/01/24 04:06:38;;;;;;;4.85;2.25;;;20.00;53.80;;;;;;4993501;28;20047;-61
2022/01/24 04:09:04;;;;;;;4.70;2.42;;;20.00;53.80;;;;;;5009181;28;20379;-60
2022/01/24 04:11:35;;;;;;;4.05;2.22;;;20.00;53.80;;;;;;5013422;28;20046;-60
2022/01/24 04:14:11;;;;;;;3.85;2.05;;;20.00;53.80;;;;;;5013321;28;20054;-61
2022/01/24 04:16:41;;;;;;;4.50;2.25;;;20.00;53.80;;;;;;5013926;28;20046;-61
2022/01/24 04:21:17;;;;;;;5.07;2.47;;;20.00;53.80;;;;;;5014091;28;20050;-61
2022/01/24 04:21:55;;;;;;;4.60;2.33;;;20.10;53.70;;;;;;5013079;28;20160;-61
2022/01/24 04:24:23;;;;;;;4.07;2.20;;;20.00;53.70;;;;;;5013765;28;20137;-61
2022/01/24 04:26:49;;;;;;;4.22;2.35;;;20.00;53.60;;;;;;5013164;28;20081;-61
2022/01/24 04:29:14;;;;;;;4.03;2.30;;;20.00;53.50;;;;;;5013515;28;20092;-61
2022/01/24 04:31:40;;;;;;;4.50;2.70;;;20.00;53.50;;;;;;5013146;28;20049;-61
2022/01/24 04:34:05;;;;;;;4.30;2.30;;;20.10;53.50;;;;;;5012448;28;20375;-60
2022/01/24 04:36:31;;;;;;;5.15;2.70;;;20.10;53.50;;;;;;5013299;28;20843;-61
2022/01/24 04:38:56;;;;;;;5.28;2.70;;;20.10;53.60;;;;;;5013842;28;20041;-61
2022/01/24 04:41:26;;;;;;;5.38;2.60;;;20.10;53.50;;;;;;4994798;28;20092;-61
2022/01/24 04:43:58;;;;;;;4.65;2.92;;;20.10;53.50;;;;;;5013560;28;20045;-61
2022/01/24 04:51:53;;;;;;;5.53;2.85;;;20.10;53.50;;;;;;5012878;28;20485;-61
2022/01/24 04:54:40;;;;;;;5.85;3.03;;;20.10;53.50;;;;;;5013330;28;20081;-61
2022/01/24 04:57:07;;;;;;;5.85;3.20;;;20.10;53.60;;;;;;5013281;28;20052;-61
2022/01/24 04:59:33;;;;;;;5.85;3.08;;;20.10;53.60;;;;;;5012702;28;20485;-61
2022/01/24 05:01:58;;;;;;;5.30;2.90;;;20.10;53.50;;;;;;5006109;28;20042;-61
2022/01/24 05:04:24;;;;;;;5.57;2.90;;;20.20;53.60;;;;;;5009378;28;20064;-61
2022/01/24 05:06:49;;;;;;;5.03;2.70;;;20.20;53.60;;;;;;5012104;28;20413;-61
2022/01/24 05:09:17;;;;;;;5.95;3.40;;;20.20;53.50;;;;;;5011271;28;20074;-61
2022/01/24 05:11:52;;;;;;;5.03;2.90;;;20.20;53.60;;;;;;5013100;28;20069;-61
2022/01/24 05:25:14;;;;;;;6.10;3.35;;;20.20;53.40;;;;;;5012950;28;20050;-61
2022/01/24 05:27:40;;;;;;;5.85;3.40;;;20.20;53.40;;;;;;5012846;28;20378;-61
2022/01/24 05:30:06;;;;;;;6.15;3.35;;;20.20;53.40;;;;;;5012333;28;20213;-61
2022/01/24 05:32:31;;;;;;;6.28;3.55;;;20.20;53.40;;;;;;5012508;28;20050;-61
2022/01/24 05:34:57;;;;;;;6.13;3.40;;;20.20;53.40;;;;;;5012782;28;20187;-61
2022/01/24 05:37:22;;;;;;;6.03;3.40;;;20.20;53.40;;;;;;5011466;28;20045;-61
2022/01/24 05:39:48;;;;;;;6.53;3.50;;;20.30;53.40;;;;;;5012680;28;20049;-61
2022/01/24 05:42:13;;;;;;;7.88;3.75;;;20.30;53.40;;;;;;5012574;28;20042;-61
2022/01/24 05:44:39;;;;;;;5.68;3.30;;;20.30;53.40;;;;;;5011624;28;20095;-60
2022/01/24 05:47:04;;;;;;;6.97;3.47;;;20.30;53.40;;;;;;5012584;28;20054;-60
2022/01/24 05:49:30;;;;;;;6.63;3.45;;;20.30;54.10;;;;;;5015380;28;20046;-61
2022/01/24 05:51:56;;;;;;;6.18;3.72;;;20.30;53.40;;;;;;5015826;28;20121;-61
2022/01/24 05:54:21;;;;;;;7.40;3.60;;;20.30;53.40;;;;;;5016304;28;20046;-61
2022/01/24 05:56:47;;;;;;;5.97;3.53;;;20.30;53.40;;;;;;5016562;28;20449;-61
2022/01/24 05:59:12;;;;;;;6.10;3.50;;;20.30;53.40;;;;;;5015385;28;20064;-61
2022/01/24 06:01:38;;;;;;;6.40;3.90;;;20.30;53.40;;;;;;5016172;28;20077;-61
2022/01/24 06:04:04;;;;;;;6.80;3.85;;;20.30;53.30;;;;;;5016259;28;20440;-61
2022/01/24 06:06:29;;;;;;;6.10;3.70;;;20.30;53.30;;;;;;5015255;28;20081;-61
2022/01/24 06:08:55;;;;;;;6.78;3.67;;;20.30;53.30;;;;;;5016378;28;20042;-61
2022/01/24 06:11:23;;;;;;;6.45;3.60;;;20.30;53.30;;;;;;5015664;28;20049;-61
2022/01/24 06:13:51;;;;;;;6.57;3.92;;;20.30;53.30;;;;;;4996574;28;20510;-61
2022/01/24 06:16:16;;;;;;;7.45;4.22;;;20.30;53.30;;;;;;5015797;28;20125;-61
2022/01/24 06:18:42;;;;;;;6.65;4.20;;;20.30;53.30;;;;;;5016033;28;20132;-61
2022/01/24 06:21:07;;;;;;;6.90;3.90;;;20.30;53.20;;;;;;5014732;28;20060;-61
2022/01/24 06:23:33;;;;;;;7.10;4.07;;;20.30;53.20;;;;;;5015876;28;20470;-61
2022/01/24 06:25:58;;;;;;;6.30;3.90;;;20.30;53.20;;;;;;5016431;28;20046;-61
2022/01/24 06:28:24;;;;;;;7.57;4.30;;;20.40;53.30;;;;;;5014990;28;20125;-61
2022/01/24 06:30:49;;;;;;;7.57;4.07;;;20.30;53.20;;;;;;5016079;28;20050;-61
2022/01/24 06:33:15;;;;;;;6.35;3.88;;;20.30;53.20;;;;;;5014727;28;20046;-61
2022/01/24 06:35:40;;;;;;;7.63;4.07;;;20.30;53.20;;;;;;5015781;28;20042;-61
2022/01/24 06:38:06;;;;;;;6.97;3.92;;;20.40;53.20;;;;;;5015844;28;20045;-61
2022/01/24 06:40:32;;;;;;;7.35;4.13;;;20.40;53.20;;;;;;5014755;28;20148;-61
2022/01/24 06:42:58;;;;;;;7.05;4.20;;;20.40;53.20;;;;;;5015934;28;20081;-61
2022/01/24 06:45:23;;;;;;;7.22;4.40;;;20.40;53.20;;;;;;5015268;28;20073;-61
2022/01/24 06:47:49;;;;;;;6.95;4.35;;;20.40;53.10;;;;;;5014944;28;20046;-61
2022/01/24 06:50:14;;;;;;;7.80;4.57;;;20.40;53.10;;;;;;5015267;28;20046;-61
2022/01/24 06:52:40;;;;;;;7.45;3.92;;;20.40;53.10;;;;;;5015508;28;20045;-61
2022/01/24 06:55:05;;;;;;;8.32;4.57;;;20.40;53.10;;;;;;5014694;28;20038;-61
2022/01/24 06:57:31;;;;;;;7.55;4.30;;;20.40;53.00;;;;;;5014668;28;20056;-61
2022/01/24 06:59:57;;;;;;;7.93;4.60;;;20.40;53.00;;;;;;5013962;28;20050;-61
2022/01/24 07:02:22;;;;;;;7.80;4.55;;;20.40;53.00;;;;;;5014219;28;20056;-61
2022/01/24 07:04:48;;;;;;;7.97;4.32;;;20.40;53.00;;;;;;5015593;28;20046;-61
2022/01/24 07:07:13;;;;;;;8.05;4.43;;;20.40;53.00;;;;;;5015034;28;20052;-60
2022/01/24 07:09:39;;;;;;;11.82;4.30;;;20.40;53.00;;;;;;5014589;28;20120;-60
2022/01/24 07:12:05;;;;;;;9.02;5.43;;;20.40;53.00;;;;;;5015281;28;20057;-60
2022/01/24 07:14:31;;;;;;;9.80;4.65;;;20.50;53.00;;;;;;5014336;28;20049;-61
2022/01/24 07:19:29;;;;;;;9.55;4.65;;;20.50;53.00;;;;;;5014928;28;20069;-60
2022/01/24 07:21:55;;;;;;;9.95;5.30;;;20.50;53.00;;;;;;5007782;28;20475;-60
2022/01/24 07:24:21;;;;;;;10.85;5.65;;;20.50;53.00;;;;;;5002024;28;20050;-60
2022/01/24 07:26:47;;;;;;;7.32;4.28;;;20.50;53.00;;;;;;4995240;28;20043;-60
2022/01/24 07:29:12;;;;;;;9.85;4.75;;;20.50;53.00;;;;;;4994719;28;20046;-60
2022/01/24 07:31:37;;;;;;;9.18;4.68;;;20.50;53.00;;;;;;4994618;28;20082;-60
2022/01/24 07:34:03;;;;;;;8.27;5.13;;;20.50;53.00;;;;;;4994786;28;20052;-60
2022/01/24 07:36:28;;;;;;;9.80;4.82;;;20.50;53.00;;;;;;4994206;28;20050;-61
2022/01/24 07:38:54;;;;;;;9.02;5.22;;;20.50;53.20;;;;;;4995148;28;20046;-60
2022/01/24 07:41:25;;;;;;;8.48;4.80;;;20.50;53.30;;;;;;4994527;28;20050;-60
2022/01/24 07:43:50;;;;;;;9.38;5.25;;;20.50;53.40;;;;;;4994166;28;20046;-60
2022/01/24 07:46:16;;;;;;;10.77;5.55;;;20.50;53.50;;;;;;4994928;28;20053;-61
2022/01/24 07:48:41;;;;;;;8.05;4.60;;;20.50;53.60;;;;;;4995103;28;20053;-60
2022/01/24 07:51:07;;;;;;;11.05;4.93;;;20.60;53.80;;;;;;4994186;28;20042;-61
2022/01/24 07:53:33;;;;;;;8.65;4.78;;;20.50;53.80;;;;;;4993639;28;20054;-60
2022/01/24 07:55:58;;;;;;;8.57;5.05;;;20.60;53.90;;;;;;5001803;28;20069;-61
2022/01/24 07:58:24;;;;;;;8.27;5.22;;;20.60;54.00;;;;;;4998166;28;20084;-62
2022/01/24 08:00:50;;;;;;;10.32;4.85;;;20.60;53.90;;;;;;5000527;28;20050;-60
2022/01/24 08:03:15;;;;;;;7.75;4.80;;;20.60;54.00;;;;;;5010795;28;20038;-64
2022/01/24 08:05:42;;;;;;;9.02;5.22;;;20.60;54.10;;;;;;5013340;28;20049;-60
2022/01/24 08:08:07;;;;;;;10.38;5.53;;;20.60;54.00;;;;;;5014036;28;20052;-61
2022/01/24 08:10:33;;;;;;;9.05;5.05;;;20.60;53.90;;;;;;5013610;28;20128;-61
2022/01/24 08:12:59;;;;;;;8.82;4.63;;;20.60;53.80;;;;;;5012177;28;20096;-60
2022/01/24 08:15:24;;;;;;;8.70;5.00;;;20.60;53.90;;;;;;5002966;28;20041;-60
2022/01/24 08:17:50;;;;;;;9.43;5.43;;;20.60;54.00;;;;;;4999515;28;20065;-61
2022/01/24 08:20:15;;;;;;;7.95;5.18;;;20.60;54.00;;;;;;5001291;28;20038;-60
2022/01/24 08:22:41;;;;;;;8.82;5.78;;;20.60;54.00;;;;;;4993926;28;20042;-60
2022/01/24 08:25:07;;;;;;;10.18;5.50;;;20.60;53.80;;;;;;4999627;28;20085;-60
2022/01/24 08:27:33;;;;;;;9.43;5.30;;;20.60;53.90;;;;;;5008826;28;20050;-60
2022/01/24 08:29:59;;;;;;;8.45;5.68;;;20.70;54.10;;;;;;4995625;28;20099;-61
2022/01/24 08:32:24;;;;;;;9.10;5.60;;;20.60;54.10;;;;;;5009569;28;20409;-60
2022/01/24 08:34:50;;;;;;;9.13;5.68;;;20.70;54.20;;;;;;5007542;28;20129;-62
2022/01/24 08:37:15;;;;;;;8.48;5.35;;;20.70;54.20;;;;;;4995621;28;20140;-62
2022/01/24 08:39:43;;;;;;;9.00;4.82;;;20.70;54.30;;;;;;4995541;28;20038;-61
2022/01/24 08:42:17;;;;;;;8.20;5.28;;;20.70;54.20;;;;;;5013153;28;20104;-60
2022/01/24 08:47:21;;;;;;;9.88;5.30;;;20.70;54.20;;;;;;5001381;28;20108;-60
2022/01/24 08:49:46;;;;;;;8.52;5.30;;;20.70;54.20;;;;;;4993630;28;20050;-61
2022/01/24 08:52:12;;;;;;;7.68;5.15;;;20.70;54.20;;;;;;4993395;28;20050;-60
2022/01/24 08:54:37;;;;;;;9.05;4.97;;;20.70;54.10;;;;;;4992475;28;20042;-60
2022/01/24 08:57:03;;;;;;;9.38;5.43;;;20.80;54.20;;;;;;4993669;28;20046;-60
2022/01/24 08:59:30;;;;;;;8.52;5.30;;;20.70;54.10;;;;;;4992917;28;20038;-60
2022/01/24 09:01:56;;;;;;;11.13;5.40;;;20.80;54.10;;;;;;4993194;28;20108;-60
2022/01/24 09:04:21;;;;;;;8.60;5.40;;;20.80;53.90;;;;;;4995927;28;20482;-60
2022/01/24 09:06:47;;;;;;;9.90;5.90;;;20.80;53.90;;;;;;4997117;28;20153;-60
2022/01/24 09:09:14;;;;;;;8.05;5.10;;;20.80;54.00;;;;;;4991279;28;20061;-60
2022/01/24 09:11:40;;;;;;;10.05;5.07;;;20.80;54.00;;;;;;4975650;28;20050;-61
2022/01/24 09:14:06;;;;;;;7.35;4.88;;;20.80;54.10;;;;;;4993225;28;20061;-62
2022/01/24 09:16:31;;;;;;;8.77;5.30;;;20.80;54.10;;;;;;4974982;28;20058;-62
2022/01/24 09:18:58;;;;;;;9.55;5.80;;;20.80;54.10;;;;;;4993264;28;20127;-60
2022/01/24 09:21:23;;;;;;;11.40;4.65;;;20.80;54.10;;;;;;4992967;28;20074;-62
2022/01/24 09:23:49;;;;;;;9.55;5.28;;;20.80;54.00;;;;;;4991583;28;20074;-60
2022/01/24 09:26:14;;;;;;;7.85;4.80;;;20.80;54.00;;;;;;4992936;28;20050;-61
2022/01/24 09:28:40;;;;;;;8.98;5.38;;;20.80;54.00;;;;;;4993155;28;20046;-61
2022/01/24 09:31:06;;;;;;;8.55;5.55;;;20.90;54.00;;;;;;4992725;28;20078;-60
2022/01/24 09:33:31;;;;;;;9.30;5.20;;;20.80;53.90;;;;;;4992811;28;20498;-60
2022/01/24 09:35:59;;;;;;;8.90;5.28;;;20.90;54.10;;;;;;4992969;28;20051;-60
2022/01/24 09:38:29;;;;;;;9.60;5.70;;;20.90;54.10;;;;;;4992843;28;20050;-60
2022/01/24 09:40:54;;;;;;;8.32;5.57;;;20.90;54.10;;;;;;4993291;28;20046;-61
2022/01/24 09:43:20;;;;;;;8.30;5.05;;;20.90;54.10;;;;;;4974492;28;20230;-61
2022/01/24 09:45:46;;;;;;;9.40;5.82;;;20.90;54.10;;;;;;4993273;28;20509;-61
2022/01/24 09:48:12;;;;;;;9.68;5.32;;;20.90;54.10;;;;;;4975836;28;20489;-61
2022/01/24 09:50:37;;;;;;;8.50;5.00;;;20.90;54.10;;;;;;4991072;28;20129;-61
2022/01/24 09:53:03;;;;;;;9.30;5.55;;;20.90;54.10;;;;;;4992990;28;20057;-61
2022/01/24 09:55:28;;;;;;;8.70;5.45;;;20.90;54.00;;;;;;4992960;28;20479;-61
2022/01/24 09:57:54;;;;;;;7.50;4.97;;;20.90;54.00;;;;;;4992225;28;20513;-60
2022/01/24 10:00:24;;;;;;;8.20;4.82;;;20.90;54.00;;;;;;5010459;28;20050;-61
2022/01/24 10:02:50;;;;;;;7.10;4.82;;;20.90;53.90;;;;;;5012722;28;20045;-60
2022/01/24 10:05:26;;;;;;;7.95;5.05;;;20.90;53.80;;;;;;5011200;28;20048;-60
2022/01/24 10:07:54;;;;;;;9.48;5.22;;;20.90;54.00;;;;;;5012598;28;20053;-60
2022/01/24 10:10:39;;;;;;;8.68;5.13;;;20.90;54.00;;;;;;5012139;28;20050;-61
2022/01/24 10:16:24;;;;;;;9.02;5.35;;;20.90;54.00;;;;;;5022808;28;20050;-61
2022/01/24 10:18:59;;;;;;;8.18;5.50;;;20.90;54.00;;;;;;5031344;28;20073;-60
2022/01/24 10:21:25;;;;;;;7.10;4.53;;;20.90;54.00;;;;;;5020316;28;20057;-61
2022/01/24 10:23:50;;;;;;;7.45;5.15;;;20.90;54.00;;;;;;5008835;28;20129;-60
2022/01/24 10:26:16;;;;;;;7.43;4.70;;;20.90;54.00;;;;;;5011318;28;20378;-60
2022/01/24 10:28:43;;;;;;;8.75;5.38;;;20.90;54.00;;;;;;5011656;28;20042;-61
2022/01/24 10:31:17;;;;;;;8.63;5.03;;;21.00;54.10;;;;;;5011243;28;20046;-60
2022/01/24 10:33:53;;;;;;;8.43;4.78;;;21.00;54.10;;;;;;5011414;28;20401;-60
2022/01/24 10:36:26;;;;;;;8.07;4.63;;;21.00;54.10;;;;;;5015141;28;20041;-61
2022/01/24 10:38:55;;;;;;;7.53;4.63;;;21.00;54.10;;;;;;5015636;28;20056;-61
2022/01/24 10:41:24;;;;;;;7.00;4.50;;;21.00;54.10;;;;;;5013450;28;20084;-60
2022/01/24 10:43:52;;;;;;;6.90;4.18;;;21.00;54.10;;;;;;5015100;28;20474;-61
2022/01/24 10:46:25;;;;;;;5.82;4.32;;;21.00;54.10;;;;;;5002013;28;20157;-61
2022/01/24 10:49:00;;;;;;;7.15;4.60;;;21.00;53.80;;;;;;4995873;28;20050;-61
2022/01/24 10:51:25;;;;;;;7.10;4.40;;;21.00;53.60;;;;;;4995301;28;20073;-61
2022/01/24 10:53:55;;;;;;;8.63;4.95;;;21.00;53.50;;;;;;4995215;28;20092;-61
2022/01/24 10:56:41;;;;;;;8.02;4.90;;;21.00;53.50;;;;;;4995709;28;20042;-61
2022/01/24 10:59:06;;;;;;;7.43;4.88;;;21.00;53.40;;;;;;4997033;28;20061;-61
2022/01/24 11:01:32;;;;;;;7.72;4.82;;;21.00;53.40;;;;;;5000896;28;20054;-61
2022/01/24 11:04:02;;;;;;;7.15;4.72;;;21.00;53.40;;;;;;4995556;28;20089;-61
2022/01/24 11:06:34;;;;;;;7.03;4.40;;;21.00;53.30;;;;;;4995056;28;20460;-61
2022/01/24 11:09:12;;;;;;;6.63;4.50;;;21.00;53.30;;;;;;4995041;28;20046;-61
2022/01/24 11:11:37;;;;;;;;;;;21.00;53.30;;;;;;4978070;28;20466;-61
2022/01/24 11:14:03;;;;;;;7.40;4.47;;;21.00;53.20;;;;;;4995302;28;19969;-61
2022/01/24 11:16:29;;;;;;;8.45;5.10;;;21.00;53.30;;;;;;4976686;28;20038;-61
2022/01/24 11:18:54;;;;;;;6.18;4.32;;;21.00;53.90;;;;;;4978397;28;20437;-60
2022/01/24 11:21:20;;;;;;;8.02;4.57;;;21.00;53.40;;;;;;5014045;28;20049;-61
2022/01/24 11:23:45;;;;;;;7.15;4.60;;;21.00;53.50;;;;;;5013088;28;20536;-60
2022/01/24 11:26:11;;;;;;;9.38;4.10;;;21.00;53.60;;;;;;5014839;28;20052;-61
2022/01/24 11:28:37;;;;;;;7.65;4.82;;;21.00;53.70;;;;;;5012947;28;20074;-61
2022/01/24 11:31:23;;;;;;;8.27;4.53;;;21.10;53.90;;;;;;4980762;28;20041;-60
2022/01/24 11:34:13;;;;;;;8.68;4.82;;;21.00;53.80;;;;;;5014811;28;20536;-60
2022/01/24 11:36:41;;;;;;;6.85;4.72;;;21.10;53.90;;;;;;5012171;28;20050;-60
2022/01/24 11:39:07;;;;;;;7.88;4.63;;;21.10;54.00;;;;;;5014312;28;20049;-60
2022/01/24 11:41:34;;;;;;;9.35;4.72;;;21.10;54.00;;;;;;5014085;28;20096;-61
2022/01/24 11:44:08;;;;;;;6.53;4.70;;;21.10;54.00;;;;;;5012645;28;20126;-61
2022/01/24 11:46:45;;;;;;;7.65;4.90;;;21.10;54.10;;;;;;4996126;28;20084;-60
2022/01/24 11:49:27;;;;;;;8.23;5.00;;;21.10;53.90;;;;;;5014403;28;20518;-61
2022/01/24 11:52:15;;;;;;;7.47;5.07;;;21.10;54.00;;;;;;5013344;28;20042;-60
2022/01/24 11:57:15;;;;;;;;;;;21.10;53.80;;;;;;5014026;28;19921;-60
2022/01/24 11:59:41;;;;;;;8.05;4.60;;;21.10;53.80;;;;;;5013887;28;19925;-59
2022/01/24 12:02:08;;;;;;;7.90;4.70;;;21.10;53.70;;;;;;5013879;28;20416;-60
2022/01/24 12:05:00;;;;;;;6.97;4.40;;;21.10;53.60;;;;;;5012994;28;20393;-60
2022/01/24 12:07:25;;;;;;;6.38;4.65;;;21.10;53.50;;;;;;5013825;28;20046;-60
2022/01/24 12:09:52;;;;;;;7.05;4.45;;;21.10;53.50;;;;;;5014256;28;20046;-61
2022/01/24 12:12:36;;;;;;;9.02;4.85;;;21.10;53.50;;;;;;5012964;28;20050;-60
2022/01/24 12:15:03;;;;;;;7.07;5.00;;;21.10;53.40;;;;;;5014067;28;20056;-60
2022/01/24 12:17:44;;;;;;;6.88;5.10;;;21.10;53.30;;;;;;5013577;28;20057;-60
2022/01/24 12:20:29;;;;;;;8.00;4.80;;;21.10;53.20;;;;;;5013987;28;20045;-60
2022/01/24 12:22:54;;;;;;;8.60;5.45;;;21.10;53.10;;;;;;5013522;28;20041;-61
2022/01/24 12:25:57;;;;;;;7.25;5.15;;;21.10;53.20;;;;;;4989209;28;20061;-60
2022/01/24 12:28:24;;;;;;;8.27;5.40;;;21.10;53.10;;;;;;4993036;28;20046;-60
2022/01/24 12:30:59;;;;;;;6.88;4.93;;;21.10;53.30;;;;;;4993951;28;20053;-60
2022/01/24 12:33:50;;;;;;;7.35;4.93;;;21.10;53.30;;;;;;4992730;28;20096;-60
2022/01/24 12:36:16;;;;;;;7.60;4.75;;;21.10;53.40;;;;;;4993466;28;20127;-60
2022/01/24 12:38:47;;;;;;;8.18;4.68;;;21.10;53.40;;;;;;4993943;28;20050;-60
2022/01/24 12:41:34;;;;;;;6.13;4.53;;;21.10;53.40;;;;;;4992892;28;20078;-60
2022/01/24 12:46:28;;;;;;;7.05;5.20;;;21.20;53.50;;;;;;4992803;28;20054;-60
2022/01/24 12:48:55;;;;;;;7.78;5.32;;;21.20;53.50;;;;;;4993671;28;20050;-60
2022/01/24 12:51:21;;;;;;;7.95;5.18;;;21.20;53.50;;;;;;4993593;28;20486;-60
2022/01/24 12:53:48;;;;;;;7.20;4.90;;;21.20;53.60;;;;;;4992571;28;20058;-60
2022/01/24 12:56:14;;;;;;;8.68;4.80;;;21.20;53.50;;;;;;4994221;28;20046;-59
2022/01/24 12:58:41;;;;;;;6.68;4.57;;;21.20;53.70;;;;;;4998668;28;20095;-59
2022/01/24 13:01:20;;;;;;;7.85;5.13;;;21.20;53.70;;;;;;4992706;28;20058;-60
2022/01/24 13:03:51;;;;;;;;;;;21.20;53.80;;;;;;4993929;28;20042;-59
2022/01/24 13:06:17;;;;;;;7.95;4.82;;;21.20;53.80;;;;;;5011308;28;20435;-59
2022/01/24 13:08:55;;;;;;;7.43;5.35;;;21.20;53.80;;;;;;5012111;28;20085;-59
2022/01/24 13:11:21;;;;;;;5.97;4.97;;;21.20;53.80;;;;;;5012345;28;20050;-59
2022/01/24 13:14:04;;;;;;;7.68;5.25;;;21.20;53.80;;;;;;5013121;28;20042;-59
2022/01/24 13:23:00;;;;;;;7.82;4.97;;;21.20;53.80;;;;;;5011906;28;20485;-58
2022/01/24 13:25:22;;;;;;;7.50;5.55;;;21.20;53.80;;;;;;5009284;28;20385;-58
2022/01/24 13:27:55;;;;;;;9.88;5.40;;;21.20;53.60;;;;;;5012677;28;20041;-60
2022/01/24 13:30:25;;;;;;;8.30;5.72;;;21.20;53.50;;;;;;5011951;28;20193;-60
2022/01/24 13:32:51;;;;;;;6.85;5.35;;;21.20;53.50;;;;;;5012916;28;20042;-60
2022/01/24 13:35:25;;;;;;;7.55;5.85;;;21.30;53.60;;;;;;5011594;28;20065;-60
2022/01/24 13:37:51;;;;;;;8.60;6.00;;;21.30;53.60;;;;;;5012636;28;20080;-59
2022/01/24 13:40:35;;;;;;;8.77;5.68;;;21.30;53.70;;;;;;4994671;28;20054;-59
2022/01/24 13:43:01;;;;;;;7.15;5.10;;;21.30;53.70;;;;;;5011712;28;20042;-60
2022/01/24 13:45:27;;;;;;;6.47;5.25;;;21.30;53.80;;;;;;5003269;28;20030;-60
2022/01/24 13:47:59;;;;;;;6.93;5.18;;;21.30;53.80;;;;;;4992860;28;20402;-59
2022/01/24 13:50:25;;;;;;;8.70;5.50;;;21.30;53.80;;;;;;4992003;28;20046;-60
2022/01/24 13:52:50;;;;;;;7.85;5.80;;;21.30;53.80;;;;;;4992912;28;20050;-59
2022/01/24 13:55:17;;;;;;;7.13;5.03;;;21.30;53.80;;;;;;4992622;28;20038;-59
2022/01/24 13:57:47;;;;;;;7.10;5.57;;;21.30;53.80;;;;;;4992272;28;20054;-59
2022/01/24 14:00:15;;;;;;;9.00;5.90;;;21.30;53.80;;;;;;4992285;28;20454;-59
2022/01/24 14:02:41;;;;;;;;;;;21.30;53.80;;;;;;4993051;28;20269;-60
2022/01/24 14:05:07;;;;;;;8.80;5.43;;;21.20;53.80;;;;;;4992232;28;20310;-59
2022/01/24 14:07:34;;;;;;;7.82;5.53;;;21.30;53.80;;;;;;4992543;28;20605;-59
2022/01/24 14:10:03;;;;;;;7.73;6.07;;;21.20;53.80;;;;;;4995154;28;20068;-59
2022/01/24 14:12:40;;;;;;;6.63;5.40;;;21.30;53.80;;;;;;4995283;28;20401;-60
2022/01/24 14:15:24;;;;;;;8.23;5.68;;;21.20;53.80;;;;;;4996606;28;20042;-60
2022/01/24 14:20:42;;;;;;;10.07;5.22;;;21.20;53.80;;;;;;5001423;28;20533;-60
2022/01/24 14:23:23;;;;;;;8.10;5.90;;;21.20;53.80;;;;;;4996092;28;20038;-60
2022/01/24 14:25:48;;;;;;;8.02;5.22;;;21.30;53.80;;;;;;4995609;28;20051;-59
2022/01/24 14:28:14;;;;;;;8.13;5.35;;;21.20;53.80;;;;;;4995100;28;20367;-60
2022/01/24 14:30:43;;;;;;;7.38;5.63;;;21.30;53.80;;;;;;4996474;28;20485;-59
2022/01/24 14:33:30;;;;;;;8.25;5.13;;;21.20;53.70;;;;;;4995449;28;20049;-60
2022/01/24 14:36:03;;;;;;;8.35;5.18;;;21.20;53.80;;;;;;4996500;28;20498;-60
2022/01/24 14:38:38;;;;;;;6.78;5.30;;;21.30;53.70;;;;;;4994996;28;20050;-59
2022/01/24 14:41:09;;;;;;;6.38;5.13;;;21.20;53.10;;;;;;5012602;28;20085;-59
2022/01/24 14:46:22;;;;;;;6.75;5.10;;;21.20;53.20;;;;;;4995165;28;20050;-59